This is the latest recevied weather packets stored in our database for station/object KV4OP. If no packets are shown the sender has not sent any weather packets the latest 1 day(s).
| Time | Temp. | Humidity | Pressure | Rain* | Wind** | Luminosity | Snow |
|---|---|---|---|---|---|---|---|
| 1778100036 | 33.33° C | 42% | 1015.4 hPa | 0 mm | - | - | - |
| 1778098834 | 33.33° C | 44% | 1015.5 hPa | 0 mm | - | - | - |
| 1778097932 | 33.33° C | 48% | 1015.5 hPa | 0 mm | - | - | - |
| 1778097634 | 32.78° C | 46% | 1015.6 hPa | 0 mm | - | - | - |
| 1778094627 | 32.78° C | 44% | 1016.1 hPa | 0 mm | - | - | - |
| 1778094027 | 32.78° C | 46% | 1016.3 hPa | 0 mm | - | - | - |
| 1778093129 | 32.22° C | 49% | 1016.6 hPa | 0 mm | - | - | - |
| 1778091325 | 31.67° C | 48% | 1016.8 hPa | 0 mm | - | - | - |
| 1778090426 | 32.22° C | 47% | 1016.8 hPa | 0 mm | - | - | - |
| 1778088919 | 32.22° C | 48% | 1017.2 hPa | 0 mm | - | - | - |
| 1778088619 | 32.22° C | 52% | 1017.2 hPa | 0 mm | - | - | - |
| 1778088318 | 31.11° C | 52% | 1017.3 hPa | 0 mm | - | - | - |
| 1778087118 | 31.11° C | 53% | 1017.4 hPa | 0 mm | - | - | - |
| 1778086215 | 30.56° C | 52% | 1017.6 hPa | 0 mm | - | - | - |
| 1778085614 | 30.56° C | 53% | 1017.7 hPa | 0 mm | - | - | - |
| 1778085316 | 30.56° C | 54% | 1017.8 hPa | 0 mm | - | - | - |
| 1778084414 | 30.56° C | 52% | 1017.8 hPa | 0 mm | - | - | - |
| 1778083211 | 30° C | 55% | 1017.7 hPa | 0 mm | - | - | - |
| 1778082310 | 30° C | 54% | 1017.9 hPa | 0 mm | - | - | - |
| 1778077858 | 27.78° C | 70% | 1017.9 hPa | 0 mm | - | - | - |
| 1778076655 | 26.67° C | 70% | 1017.9 hPa | 0 mm | - | - | - |
| 1778076354 | 26.67° C | 71% | 1017.9 hPa | 0 mm | - | - | - |
| 1778076060 | 26.67° C | 71% | 1017.9 hPa | 0 mm | - | - | - |
| 1778074548 | 25.56° C | 78% | 1017.8 hPa | 0 mm | - | - | - |
| 1778073344 | 25° C | 80% | 1017.7 hPa | 0 mm | - | - | - |
* Rain latest hour (hover to see other rain measurements)
** Current wind speed in m/s (hover to see current wind gust speed)